Munds Park, AZ (86017)

10:08 PM MST on February 06, 2016 (GMT -0700)
Munds Park Crystal Brook | | Change Station
CLOSE
Current Station
Personal Weather Station
Location: Munds Park, AZ
Elevation: 6598 ft
Nearby Weather Stations

Elev 6598 ft 34.94 °N, 111.64 °W | Updated 0 second ago

Clear
Clear
32.5 °F
Feels Like 32 °F
N
1.8
Wind Variable Wind from NE
Gusts 4.9 mph

Today
High -- | Low -- °F
--% Chance of Precip.
Yesterday
High -- | Low -- °F
Precip. -- in
Pressure 30.34 in
Visibility 10.0 miles
Clouds Clear
Windchill 32 °F
Dew Point 4 °F
Humidity 30%
Rainfall 0.04 in
Snow Depth Not available.
7:21 AM 6:00 PM
Waning Crescent, 3% visible
METAR KSEZ 070455Z AUTO 05011G15KT 10SM CLR 07/M13 A3034 RMK AO2
Pressure 30.34 in
Visibility 10.0 miles
Clouds Clear
Windchill 32 °F
Dew Point 4 °F
Humidity 30%
Rainfall 0.04 in
Snow Depth Not available.
7:21 AM 6:00 PM
Waning Crescent, 3% visible
METAR KSEZ 070455Z AUTO 05011G15KT 10SM CLR 07/M13 A3034 RMK AO2

10-Day Weather Forecast

Almanac

Astronomy

Feb. 06, 2016 Rise Set
Actual Time
Civil Twilight
Nautical Twilight
Astronomical Twilight
Moon
Length of Visible Light
Length of Day
Tomorrow will be .
, % of the Moon is Illuminated

Today's Extremes

State Highs State Lows

Community

WunderPhotos

Upload Photos

1,891,157 photos uploaded!

WunderBlog® & News

Nearby

Air Quality

  Air Quality AQ Index Pollutant
Not available.

Snow Depth

Station Depth Elevation

Earthquake Activity

City Distance Mag. Time & Date
Minimum magnitude displayed is 2.5.

Coastal Water Temperatures

Place Temperature

Stations

Nearby Weather Stations

Station Location Temp. Windchill Dew Point Humidity Wind Precip. Elev Updated Type
                   

Watches & Warnings

There are currently no watches in effect.